Isla Nueva, Argentina
Current Conditions -  °F | °C
As of 4:00 AM on Sunday 26 Oct 2014 (Local Time) from SAWH Reporting Station
Light Rain Light Rain  
Wind Chill: -2°   Ceiling: 2200
Heat Index:   Visibility: 3mi
Dew Point:   Wind: 29mph
Humidity: 87%   Direction: 230°SW
Pressure: 29.21"   Gusts: 35mph
Location:  55.25°S, 66.49°W
Report Text: SAWH 260700Z 23025G30KT 5000 -RA BKN022OVC050 04/02 Q0989
Loading
Personal Weather Stations






























Interactive Weather Map
Tropical Storm Tracking
New forecast layout! Learn more

10-Day Weather Forecast

Advertisements
Track Severe Weather on mobile